Quick Links (Output Below):   Max & Min Temps   /   Climate Reports   /   Zone Forecasts
River Forecasts   /   Forestry Forecasts   /   Aviation Forecasts   /   Radars   /   Features

Terminal Aerodrome Forecast (El Dorado)

Pick a Site:
Arkadelphia | El Dorado | Fayetteville | Fort Smith | Harrison | Highfill | Hot Springs | Jonesboro
Little Rock | Monticello | Mountain Home | Pine Bluff | Texarkana
 Forecast 

KELD 290526Z 2906/3006 07008KT P6SM SKC
      TEMPO 2910/2914 5SM BR OVC015
     FM291400 14006KT P6SM SCT015 BKN035
     FM291800 19012G18KT P6SM SCT050
     FM300000 19005KT P6SM SKC=


 Latest METARs (Observations) 
How to Decode METARs
05Z KELD 290453Z AUTO 08007KT 10SM CLR 07/01 A3022 RMK AO2 SLP232
         T00720011
         
04Z KELD 290353Z AUTO 07008KT 10SM CLR 08/01 A3022 RMK AO2 SLP232
         T00830011
         
03Z KELD 290253Z AUTO 08009KT 10SM CLR 09/02 A3021 RMK AO2 SLP230
         T00940017 53023
         
02Z KELD 290153Z AUTO 08010G17KT 10SM CLR 10/02 A3019 RMK AO2 SLP222
         T01000022
         
01Z KELD 290053Z AUTO 07015KT 10SM CLR 12/04 A3017 RMK AO2 SLP214
         T01170039
         
00Z KELD 282353Z AUTO 07012KT 10SM CLR 14/06 A3014 RMK AO2 SLP206
         T01440056 10200 20139 53010
         
***** Today's Observations (Above) *****


23Z KELD 282253Z AUTO 08011KT 10SM CLR 17/06 A3012 RMK AO2 SLP198
         T01720056
         
22Z KELD 282153Z AUTO 08011G17KT 10SM CLR 19/06 A3011 RMK AO2 SLP195
         T01940061
         
21Z KELD 282053Z AUTO 12007KT 090V160 10SM CLR 19/06 A3011 RMK AO2
         SLP196 T01890056 56025
         
20Z KELD 281953Z AUTO VRB05KT 10SM CLR 18/06 A3013 RMK AO2 SLP202
         T01830056
         
***** Yesterday's Observations (Above) *****


Back to Main Page
http://www.srh.noaa.gov/lzk/qfcst.php

USA.gov is the U.S. government's official web portal to all federal, state and local government web resources and services.